Time;durP1;ratioP1;P1;durP2;ratioP2;P2;SDS_P1;SDS_P2;PMS_P1;PMS_P2;Temp;Humidity;BMP_temperature;BMP_pressure;BME280_temperature;BME280_humidity;BME280_pressure;Samples;Min_cycle;Max_cycle;Signal;HPM_P1;HPM_P2
2023/03/10 00:06:34;;;;;;;5.70;1.97;;;7.90;99.90;;;;;;20666800;28;20038;-77
2023/03/10 00:16:35;;;;;;;3.55;1.35;;;7.90;99.90;;;;;;20666596;28;20708;-77
2023/03/10 00:26:37;;;;;;;3.37;1.40;;;8.30;99.90;;;;;;20671631;28;20046;-75
2023/03/10 00:36:39;;;;;;;5.47;1.02;;;8.70;99.90;;;;;;20664166;28;20030;-76
2023/03/10 00:46:40;;;;;;;6.35;1.30;;;8.80;99.90;;;;;;20660375;28;20030;-77
2023/03/10 00:56:40;;;;;;;3.78;0.77;;;8.80;99.90;;;;;;20616705;28;20044;-77
2023/03/10 01:06:43;;;;;;;2.27;0.70;;;8.60;99.90;;;;;;20660632;28;20456;-76
2023/03/10 01:16:44;;;;;;;4.60;1.30;;;8.40;99.90;;;;;;20661083;28;20449;-77
2023/03/10 01:26:45;;;;;;;4.95;1.20;;;8.30;99.90;;;;;;20660776;28;20039;-76
2023/03/10 01:36:46;;;;;;;3.15;1.33;;;8.20;99.90;;;;;;20660016;28;20370;-77
2023/03/10 01:46:49;;;;;;;1.58;1.08;;;8.10;99.90;;;;;;20659569;28;20034;-77
2023/03/10 01:56:57;;;;;;;3.33;1.58;;;8.10;99.90;;;;;;20660478;28;20713;-77
2023/03/10 02:06:58;;;;;;;2.65;1.33;;;7.90;99.90;;;;;;20660155;28;20481;-77
2023/03/10 02:16:59;;;;;;;;;;;7.90;99.90;;;;;;20660730;28;20038;-78
2023/03/10 02:27:16;;;;;;;5.17;1.60;;;7.90;99.90;;;;;;20660528;28;19909;-78
2023/03/10 02:37:24;;;;;;;3.63;1.58;;;7.90;99.90;;;;;;20640090;28;20293;-77
2023/03/10 02:47:26;;;;;;;5.78;2.03;;;7.90;99.90;;;;;;20599259;28;20034;-77
2023/03/10 02:57:27;;;;;;;5.32;2.05;;;8.00;99.90;;;;;;20672288;28;20034;-77
2023/03/10 03:07:28;;;;;;;5.23;2.40;;;8.00;99.90;;;;;;20671528;28;20072;-77
2023/03/10 03:17:29;;;;;;;4.50;1.90;;;7.80;99.90;;;;;;20668843;28;20796;-77
2023/03/10 03:27:30;;;;;;;3.28;1.00;;;7.80;99.90;;;;;;20668789;28;20052;-77
2023/03/10 03:37:31;;;;;;;3.47;0.90;;;8.10;99.90;;;;;;20682480;28;20038;-77
2023/03/10 03:47:32;;;;;;;1.38;0.30;;;8.40;99.90;;;;;;20638437;28;20134;-77
2023/03/10 03:57:34;;;;;;;0.77;0.35;;;8.50;99.90;;;;;;20590123;28;20042;-77
2023/03/10 04:07:38;;;;;;;1.70;0.40;;;8.60;99.90;;;;;;20606257;28;20406;-77
2023/03/10 04:17:40;;;;;;;2.78;0.30;;;8.70;99.90;;;;;;20600513;28;20433;-77
2023/03/10 04:27:42;;;;;;;1.02;0.50;;;8.80;99.90;;;;;;20659465;28;20048;-77
2023/03/10 04:37:43;;;;;;;1.38;0.82;;;8.80;99.90;;;;;;20614924;28;20038;-77
2023/03/10 04:47:45;;;;;;;11.15;1.02;;;8.80;99.90;;;;;;20654461;28;20034;-77
2023/03/10 04:57:46;;;;;;;1.70;0.53;;;9.00;99.90;;;;;;20667268;28;20042;-77
2023/03/10 05:07:47;;;;;;;0.73;0.50;;;9.10;99.90;;;;;;20621907;28;20315;-77
2023/03/10 05:17:48;;;;;;;0.23;0.20;;;9.30;99.90;;;;;;20585238;28;20027;-78
2023/03/10 05:27:49;;;;;;;4.82;0.30;;;9.20;99.90;;;;;;20581812;28;20023;-78
2023/03/10 05:37:50;;;;;;;3.37;0.57;;;9.10;99.90;;;;;;20606112;28;20042;-78
2023/03/10 05:47:51;;;;;;;2.25;0.55;;;9.20;99.90;;;;;;20564667;28;20293;-79
2023/03/10 05:57:53;;;;;;;0.60;0.20;;;9.20;99.90;;;;;;20646577;28;20039;-77
2023/03/10 06:07:54;;;;;;;1.73;0.40;;;9.60;99.90;;;;;;20629755;28;20158;-81
2023/03/10 06:17:55;;;;;;;0.47;0.47;;;9.30;99.90;;;;;;20691846;28;20034;-80
2023/03/10 06:27:56;;;;;;;0.77;0.57;;;8.70;99.90;;;;;;20649385;28;20049;-81
2023/03/10 06:37:56;;;;;;;0.30;0.20;;;8.10;99.90;;;;;;20606838;28;20035;-78
2023/03/10 06:47:57;;;;;;;0.50;0.30;;;7.70;99.90;;;;;;20613437;28;20034;-78
2023/03/10 06:58:03;;;;;;;0.30;0.25;;;7.50;99.90;;;;;;20655139;28;20038;-78
2023/03/10 07:08:04;;;;;;;0.15;0.15;;;7.50;99.90;;;;;;20675424;28;20105;-78
2023/03/10 07:18:04;;;;;;;0.90;0.55;;;7.50;99.90;;;;;;20674988;28;20057;-78
2023/03/10 07:28:06;;;;;;;2.30;0.40;;;7.40;99.90;;;;;;20678441;28;20038;-79
2023/03/10 07:38:07;;;;;;;2.97;0.70;;;7.30;99.90;;;;;;20666574;28;20046;-78
2023/03/10 07:48:08;;;;;;;0.30;0.20;;;7.00;99.90;;;;;;20678650;28;20033;-79
2023/03/10 07:58:09;;;;;;;;;;;6.90;99.90;;;;;;20685502;28;20069;-79
2023/03/10 08:08:09;;;;;;;1.10;0.60;;;6.90;99.90;;;;;;20683071;28;20266;-79
2023/03/10 08:18:10;;;;;;;8.13;0.70;;;7.00;99.90;;;;;;20689289;28;20835;-80
2023/03/10 08:28:11;;;;;;;15.80;1.08;;;7.30;99.90;;;;;;20694664;28;20285;-79
2023/03/10 08:38:12;;;;;;;6.18;1.55;;;7.50;99.90;;;;;;20624025;28;20063;-79
2023/03/10 08:48:13;;;;;;;4.33;1.10;;;7.70;99.90;;;;;;20551315;28;20073;-79
2023/03/10 08:58:14;;;;;;;7.82;1.50;;;8.00;99.90;;;;;;20683455;28;20062;-80
2023/03/10 09:08:15;;;;;;;7.28;1.02;;;8.20;99.90;;;;;;20685735;28;20692;-79
2023/03/10 09:18:16;;;;;;;2.83;0.73;;;8.20;99.90;;;;;;20683875;28;20097;-79
2023/03/10 09:28:17;;;;;;;5.40;0.98;;;8.10;99.90;;;;;;20687757;28;20396;-80
2023/03/10 09:38:17;;;;;;;3.57;0.70;;;8.00;99.90;;;;;;20703633;28;20035;-79
2023/03/10 09:48:24;;;;;;;2.10;0.60;;;8.00;99.90;;;;;;20703490;28;20030;-81
2023/03/10 09:58:57;;;;;;;1.45;0.70;;;8.10;99.90;;;;;;20706861;28;20508;-80
2023/03/10 10:09:06;;;;;;;1.55;0.60;;;8.10;99.90;;;;;;20691071;28;20162;-80
2023/03/10 10:19:23;;;;;;;5.53;1.30;;;8.10;99.90;;;;;;20682646;28;20121;-78
2023/03/10 10:29:28;;;;;;;6.70;0.93;;;8.20;99.90;;;;;;20624083;28;20470;-80
2023/03/10 10:39:36;;;;;;;1.83;0.77;;;8.20;99.90;;;;;;20614538;28;20030;-80
2023/03/10 10:49:36;;;;;;;1.05;0.50;;;8.30;99.90;;;;;;20646395;28;20038;-79
2023/03/10 10:59:40;;;;;;;1.27;0.28;;;8.50;99.90;;;;;;20697031;28;20065;-79
2023/03/10 11:09:41;;;;;;;0.67;0.23;;;8.60;99.90;;;;;;20699086;28;20034;-79
2023/03/10 11:20:11;;;;;;;0.20;0.20;;;8.70;99.90;;;;;;20696981;28;20397;-79
2023/03/10 11:30:33;;;;;;;0.10;0.10;;;8.60;99.90;;;;;;20690859;28;20042;-79
2023/03/10 11:40:56;;;;;;;0.00;0.00;;;8.70;99.90;;;;;;20690791;28;20030;-79
2023/03/10 11:50:59;;;;;;;0.43;0.20;;;8.50;99.90;;;;;;20661697;28;20306;-79
2023/03/10 12:01:01;;;;;;;1.17;0.25;;;8.40;99.90;;;;;;20641651;28;20485;-78
2023/03/10 12:11:04;;;;;;;2.28;0.20;;;8.30;99.90;;;;;;20617200;28;20030;-78
2023/03/10 12:21:25;;;;;;;0.30;0.20;;;8.20;99.90;;;;;;20652999;28;20504;-79
2023/03/10 12:31:38;;;;;;;0.20;0.20;;;8.30;99.90;;;;;;20687049;28;20068;-78
2023/03/10 12:41:44;;;;;;;0.82;0.20;;;8.50;99.90;;;;;;20665942;28;20033;-79
2023/03/10 12:51:50;;;;;;;0.43;0.13;;;8.50;99.90;;;;;;20632528;28;20030;-79
2023/03/10 13:01:52;;;;;;;0.25;0.20;;;8.60;99.90;;;;;;20649835;28;20037;-79
2023/03/10 13:12:27;;;;;;;0.30;0.20;;;8.70;99.90;;;;;;20677233;28;20054;-78
2023/03/10 13:22:28;;;;;;;0.20;0.20;;;8.80;99.90;;;;;;20617468;28;20066;-80
2023/03/10 13:32:31;;;;;;;0.23;0.20;;;8.40;99.90;;;;;;20612339;28;20031;-78
2023/03/10 13:42:31;;;;;;;0.10;0.10;;;8.50;99.90;;;;;;20618204;28;20026;-80
2023/03/10 13:52:32;;;;;;;0.20;0.20;;;8.20;99.90;;;;;;20633336;28;20034;-77
2023/03/10 14:02:38;;;;;;;0.13;0.13;;;8.10;99.90;;;;;;20581494;28;20060;-79
2023/03/10 14:12:51;;;;;;;1.35;0.43;;;7.90;99.90;;;;;;20562713;28;20107;-79
2023/03/10 14:22:52;;;;;;;1.58;0.55;;;7.90;99.90;;;;;;20578496;28;20449;-78
2023/03/10 14:32:54;;;;;;;8.85;1.15;;;8.10;99.90;;;;;;20572384;28;20027;-79
2023/03/10 14:43:00;;;;;;;2.47;0.70;;;8.20;99.90;;;;;;20586003;28;20054;-79
2023/03/10 14:53:00;;;;;;;4.40;1.20;;;8.30;99.90;;;;;;20582646;28;20046;-80
2023/03/10 15:03:01;;;;;;;5.67;0.93;;;8.60;99.90;;;;;;20627213;28;20042;-79
2023/03/10 15:13:02;;;;;;;6.45;1.20;;;8.60;99.90;;;;;;20616149;28;20022;-80
2023/03/10 15:23:03;;;;;;;;;;;7.20;99.90;;;;;;20624455;28;20094;-80
2023/03/10 15:33:04;;;;;;;7.80;2.47;;;7.20;99.90;;;;;;20615679;28;19917;-80
2023/03/10 15:43:05;;;;;;;6.05;1.98;;;7.30;99.90;;;;;;20619570;28;20505;-76
2023/03/10 15:53:06;;;;;;;12.27;2.42;;;7.40;99.90;;;;;;20642862;28;20030;-78
2023/03/10 16:03:06;;;;;;;13.97;1.70;;;7.80;99.90;;;;;;20605157;28;20297;-79
2023/03/10 16:13:07;;;;;;;16.50;2.10;;;8.10;99.90;;;;;;20616504;28;20034;-79
2023/03/10 16:23:08;;;;;;;8.17;1.97;;;8.10;99.90;;;;;;20641589;28;20545;-80
2023/03/10 16:33:09;;;;;;;12.67;1.63;;;7.70;99.90;;;;;;20618418;28;20093;-78
2023/03/10 16:43:09;;;;;;;12.20;2.23;;;6.70;99.90;;;;;;20609308;28;20045;-79
2023/03/10 16:53:10;;;;;;;10.03;1.90;;;6.90;99.90;;;;;;20621222;28;20026;-79
2023/03/10 17:03:11;;;;;;;13.30;2.13;;;7.00;99.90;;;;;;20620693;28;20361;-79
2023/03/10 17:13:12;;;;;;;11.17;2.00;;;7.30;99.90;;;;;;20625187;28;20082;-79
2023/03/10 17:23:12;;;;;;;20.87;2.33;;;7.50;99.90;;;;;;20616390;28;20118;-80
2023/03/10 17:33:13;;;;;;;18.43;2.83;;;7.60;99.90;;;;;;20609793;28;20034;-78
2023/03/10 17:43:14;;;;;;;13.07;2.10;;;7.30;99.90;;;;;;20638575;28;20041;-79
2023/03/10 17:53:15;;;;;;;4.63;1.70;;;7.00;99.90;;;;;;20624584;28;20089;-79
2023/03/10 18:03:16;;;;;;;18.42;2.65;;;7.40;99.90;;;;;;20654725;28;20058;-78
2023/03/10 18:13:16;;;;;;;9.70;1.60;;;6.90;99.90;;;;;;20659956;28;20093;-78
2023/03/10 18:23:38;;;;;;;14.48;2.10;;;6.70;99.90;;;;;;20646517;28;20305;-78
2023/03/10 18:34:02;;;;;;;11.88;1.70;;;6.90;99.90;;;;;;20646969;28;20043;-79
2023/03/10 18:44:28;;;;;;;8.75;1.38;;;6.60;99.90;;;;;;20681880;28;20030;-77
2023/03/10 18:54:59;;;;;;;6.40;1.00;;;6.80;99.90;;;;;;20642898;28;20039;-78
2023/03/10 19:05:04;;;;;;;5.78;1.38;;;6.90;99.90;;;;;;20634455;28;20034;-78
2023/03/10 19:15:07;;;;;;;12.13;1.42;;;6.90;99.90;;;;;;20596885;28;20064;-78
2023/03/10 19:25:10;;;;;;;10.10;2.17;;;6.80;99.90;;;;;;20602542;28;20027;-80
2023/03/10 19:35:12;;;;;;;10.85;1.67;;;6.80;99.90;;;;;;20627866;28;20030;-79
2023/03/10 19:45:16;;;;;;;7.57;1.60;;;6.40;99.90;;;;;;20646143;28;20462;-78
2023/03/10 19:55:21;;;;;;;4.68;1.40;;;5.30;99.90;;;;;;20640955;28;20034;-80
2023/03/10 20:05:24;;;;;;;6.78;1.70;;;5.30;99.90;;;;;;20608049;28;20031;-80
2023/03/10 20:15:26;;;;;;;8.98;2.00;;;5.20;99.90;;;;;;20608352;28;20022;-78
2023/03/10 20:25:26;;;;;;;8.05;1.92;;;5.10;99.90;;;;;;20610117;28;20038;-78
2023/03/10 20:35:30;;;;;;;3.17;1.70;;;5.10;99.90;;;;;;20605508;28;20046;-79
2023/03/10 20:45:31;;;;;;;13.25;4.70;;;5.00;99.90;;;;;;20604281;28;20027;-79
2023/03/10 20:55:31;;;;;;;6.57;2.10;;;5.00;99.90;;;;;;20596702;28;20038;-80
2023/03/10 21:05:32;;;;;;;6.80;1.92;;;5.10;99.90;;;;;;20592176;28;20080;-77
2023/03/10 21:15:33;;;;;;;4.10;1.75;;;5.00;99.90;;;;;;20608383;28;20030;-79
2023/03/10 21:25:34;;;;;;;6.90;2.55;;;4.80;99.90;;;;;;20599852;28;20030;-79
2023/03/10 21:35:37;;;;;;;2.83;1.90;;;4.80;99.90;;;;;;20632190;28;20031;-78
2023/03/10 21:45:38;;;;;;;5.38;1.92;;;4.70;99.90;;;;;;20602919;28;20086;-79
2023/03/10 21:55:39;;;;;;;3.80;1.80;;;4.70;99.90;;;;;;20627257;28;20378;-77
2023/03/10 22:05:40;;;;;;;2.97;1.80;;;4.70;99.90;;;;;;20648134;28;20029;-79
2023/03/10 22:15:41;;;;;;;4.50;2.35;;;4.70;99.90;;;;;;20608644;28;20358;-79
2023/03/10 22:25:42;;;;;;;7.35;2.90;;;4.50;99.90;;;;;;20616354;28;20113;-79
2023/03/10 22:35:50;;;;;;;3.28;2.00;;;4.60;99.90;;;;;;20587320;28;20034;-78
2023/03/10 22:45:50;;;;;;;6.28;3.08;;;4.50;99.90;;;;;;20588447;28;20130;-79
2023/03/10 22:55:51;;;;;;;5.93;2.35;;;4.50;99.90;;;;;;20593221;28;20030;-79
2023/03/10 23:05:52;;;;;;;2.63;1.60;;;4.40;99.90;;;;;;20588854;28;20114;-79
2023/03/10 23:15:53;;;;;;;10.45;2.78;;;4.40;99.90;;;;;;20623416;28;20038;-79
2023/03/10 23:25:53;;;;;;;3.50;2.00;;;4.40;99.90;;;;;;20640552;28;20030;-79
2023/03/10 23:35:54;;;;;;;4.00;2.42;;;4.30;99.90;;;;;;20639808;28;20022;-79
2023/03/10 23:45:55;;;;;;;7.60;2.22;;;4.20;99.90;;;;;;20664779;28;20038;-78
2023/03/10 23:55:57;;;;;;;3.85;2.40;;;4.20;99.90;;;;;;20651789;28;20038;-79
